Seer Green, United Kingdom
Current Conditions -  °F | °C
As of 8:50 AM on Monday 22 Dec 2014 (Local Time) from EGWU Reporting Station
Broken Clouds Broken Clouds  
Wind Chill: 13°   Ceiling: 2000
Heat Index: 13°   Visibility: 6mi
Dew Point:   Wind: 24mph
Humidity: 72%   Direction: 260°W
Pressure: 30.03"   Gusts: NA
Location:  51.62°N, 0.61°W
Report Text: EGWU 220850Z 26021KT 9999 BKN020 BKN030 13/08 Q1017 NOSIG
Loading
Personal Weather Stations






























Interactive Weather Map New forecast layout! Learn more

10-Day Weather Forecast

Advertisements
Track Severe Weather on mobile